Time;durP1;ratioP1;P1;durP2;ratioP2;P2;SDS_P1;SDS_P2;PMS_P1;PMS_P2;Temp;Humidity;BMP_temperature;BMP_pressure;BME280_temperature;BME280_humidity;BME280_pressure;Samples;Min_cycle;Max_cycle;Signal;HPM_P1;HPM_P2
2021/10/27 00:11:10;;;;;;;0.10;0.10;;;13.90;91.90;13.10;102112.00;;;;31267231;28;20111;-73
2021/10/27 00:26:11;;;;;;;0.20;0.20;;;13.90;91.80;13.10;102116.00;;;;31265280;28;20108;-73
2021/10/27 00:41:12;;;;;;;0.10;0.10;;;14.00;92.00;13.20;102130.00;;;;31251648;28;20044;-73
2021/10/27 00:56:16;;;;;;;0.20;0.20;;;13.90;92.40;13.20;102138.00;;;;31254078;28;20102;-73
2021/10/27 01:11:17;;;;;;;0.10;0.10;;;14.00;92.70;13.30;102131.00;;;;31255439;28;20052;-72
2021/10/27 01:26:19;;;;;;;0.10;0.10;;;14.10;92.60;13.30;102113.00;;;;31257121;28;20049;-73
2021/10/27 01:41:28;;;;;;;0.20;0.20;;;14.20;92.00;13.40;102097.00;;;;31244733;28;20045;-72
2021/10/27 01:56:30;;;;;;;0.10;0.10;;;14.20;92.40;13.40;102078.00;;;;31239422;28;20148;-72
2021/10/27 02:11:33;;;;;;;0.10;0.10;;;14.20;92.30;13.50;102091.00;;;;31240024;28;20135;-73
2021/10/27 02:26:35;;;;;;;0.10;0.10;;;14.30;92.30;13.50;102091.00;;;;31249126;28;20206;-73
2021/10/27 02:41:36;;;;;;;0.10;0.10;;;14.30;91.70;13.50;102081.00;;;;31243702;28;20046;-73
2021/10/27 02:56:37;;;;;;;0.20;0.20;;;14.30;92.10;13.60;102088.00;;;;31250207;28;20041;-73
2021/10/27 03:11:41;;;;;;;0.10;0.10;;;14.40;92.10;13.50;102091.00;;;;31268857;28;20532;-73
2021/10/27 03:26:57;;;;;;;4.33;1.50;;;14.30;91.60;13.50;102100.00;;;;31261910;28;20495;-73
2021/10/27 03:41:59;;;;;;;0.20;0.20;;;14.30;91.40;13.50;102095.00;;;;31268937;28;20041;-73
2021/10/27 03:57:00;;;;;;;0.22;0.22;;;14.30;91.90;13.40;102100.00;;;;31274727;28;20520;-73
2021/10/27 04:12:02;;;;;;;0.25;0.25;;;14.30;91.80;13.40;102100.00;;;;31271146;28;20529;-73
2021/10/27 04:27:04;;;;;;;0.10;0.10;;;14.20;91.80;13.40;102102.00;;;;31262246;28;20045;-73
2021/10/27 04:42:05;;;;;;;0.10;0.10;;;14.10;91.40;13.30;102111.00;;;;31261467;28;20080;-72
2021/10/27 04:57:06;;;;;;;0.10;0.10;;;14.10;91.70;13.30;102115.00;;;;31263699;28;20125;-73
2021/10/27 05:12:09;;;;;;;0.30;0.30;;;14.10;91.60;13.20;102140.00;;;;31266050;28;20090;-73
2021/10/27 05:27:11;;;;;;;0.10;0.10;;;14.10;92.10;13.10;102131.00;;;;31265765;28;20569;-73
2021/10/27 05:42:18;;;;;;;0.47;0.47;;;13.90;91.30;13.00;102139.00;;;;31256427;28;20048;-73
2021/10/27 05:57:41;;;;;;;0.75;0.43;;;13.60;91.60;12.90;102138.00;;;;31252210;28;20044;-72
2021/10/27 06:12:49;;;;;;;0.30;0.30;;;13.70;91.80;12.70;102134.00;;;;31214213;28;20064;-72
2021/10/27 06:28:00;;;;;;;0.15;0.15;;;13.60;91.80;12.50;102155.00;;;;31244803;28;20064;-72
2021/10/27 06:58:22;;;;;;;0.10;0.10;;;13.80;92.10;12.20;102167.00;;;;31240579;28;20064;-71
2021/10/27 07:28:48;;;;;;;0.13;0.13;;;13.60;92.20;12.20;102192.00;;;;31248275;28;20045;-72
2021/10/27 07:43:50;;;;;;;1.00;0.75;;;14.10;91.80;12.60;102208.00;;;;31242582;28;20832;-72
2021/10/27 07:58:53;;;;;;;0.13;0.13;;;13.30;91.90;13.00;102220.00;;;;31276182;28;20075;-73
2021/10/27 08:14:02;;;;;;;0.10;0.10;;;13.70;92.10;13.40;102230.00;;;;31274225;28;20125;-72
2021/10/27 08:29:13;;;;;;;0.30;0.30;;;14.10;91.20;13.50;102234.00;;;;31264820;28;20049;-72
2021/10/27 08:44:17;;;;;;;0.43;0.43;;;14.40;90.50;13.70;102239.00;;;;31270585;28;20053;-73
2021/10/27 09:00:00;;;;;;;0.20;0.20;;;14.50;90.90;14.00;102249.00;;;;31265906;28;20053;-73
2021/10/27 09:46:48;;;;;;;0.10;0.10;;;15.50;87.50;15.00;102253.00;;;;31274873;28;20523;-72
2021/10/27 10:04:02;;;;;;;0.17;0.17;;;15.70;87.20;15.20;102244.00;;;;31263062;28;20392;-72
2021/10/27 10:17:18;;;;;;;0.17;0.17;;;15.80;87.70;15.80;102254.00;;;;31259850;28;20041;-72
2021/10/27 10:32:21;;;;;;;0.50;0.50;;;16.40;86.30;16.40;102236.00;;;;31249083;28;20059;-72
2021/10/27 11:49:13;;;;;;;0.10;0.10;;;16.90;79.50;16.70;102237.00;;;;31272880;28;20081;-72
2021/10/27 12:04:17;;;;;;;1.13;0.45;;;18.20;81.00;16.80;102220.00;;;;31272150;28;20059;-72
2021/10/27 12:19:31;;;;;;;0.63;0.63;;;17.40;78.20;16.90;102191.00;;;;31276975;28;20040;-72
2021/10/27 12:34:55;;;;;;;0.25;0.25;;;17.60;77.70;16.90;102191.00;;;;31268139;28;20087;-72
2021/10/27 12:50:22;;;;;;;0.10;0.10;;;17.60;77.20;16.90;102166.00;;;;31263541;28;20630;-72
2021/10/27 13:05:29;;;;;;;0.30;0.30;;;17.50;78.20;17.20;102161.00;;;;31268916;28;20095;-73
2021/10/27 13:36:19;;;;;;;0.08;0.08;;;17.70;75.80;17.20;102156.00;;;;31186628;28;20099;-72
2021/10/27 14:06:47;;;;;;;0.03;0.03;;;17.80;75.20;17.10;102140.00;;;;31261099;28;20048;-71
2021/10/27 14:22:24;;;;;;;0.10;0.10;;;17.80;75.40;17.10;102125.00;;;;31259705;28;20099;-72
2021/10/27 15:54:05;;;;;;;0.05;0.05;;;16.80;75.10;15.70;102079.00;;;;31267183;28;20060;-72
2021/10/27 16:09:47;;;;;;;0.10;0.10;;;16.50;76.80;15.40;102088.00;;;;31249446;28;20041;-72
2021/10/27 16:24:54;;;;;;;0.22;0.22;;;16.20;77.50;15.00;102078.00;;;;31262102;28;20044;-71
2021/10/27 16:39:57;;;;;;;0.20;0.20;;;16.90;80.60;14.70;102082.00;;;;31265428;28;20041;-72
2021/10/27 16:54:58;;;;;;;0.10;0.10;;;15.30;78.80;14.40;102082.00;;;;31246871;28;20114;-72
2021/10/27 17:10:00;;;;;;;0.17;0.17;;;15.20;80.40;14.10;102096.00;;;;31265188;28;20072;-73
2021/10/27 17:25:08;;;;;;;0.10;0.10;;;14.90;80.70;13.80;102089.00;;;;31249336;28;20132;-72
2021/10/27 17:40:20;;;;;;;0.10;0.10;;;14.60;81.30;13.60;102094.00;;;;31249586;28;20053;-73
2021/10/27 18:10:44;;;;;;;0.30;0.30;;;14.30;82.70;13.30;102089.00;;;;31234448;28;20126;-73
2021/10/27 18:41:32;;;;;;;0.10;0.10;;;13.80;83.60;12.90;102077.00;;;;31241576;28;20708;-73
2021/10/27 18:56:58;;;;;;;0.40;0.40;;;13.80;84.90;12.60;102080.00;;;;31239670;28;20080;-73
2021/10/27 19:11:59;;;;;;;0.10;0.10;;;13.50;85.70;12.40;102082.00;;;;31239013;28;20045;-73
2021/10/27 19:27:04;;;;;;;0.10;0.10;;;13.30;84.80;12.20;102080.00;;;;31228156;28;20140;-73
2021/10/27 21:13:35;;;;;;;0.10;0.10;;;12.00;90.20;10.90;102062.00;;;;31240893;28;20041;-73
2021/10/27 21:29:00;;;;;;;0.30;0.30;;;11.90;90.60;10.70;102055.00;;;;31242142;28;20037;-74
2021/10/27 21:44:01;;;;;;;0.10;0.10;;;11.70;90.30;10.60;102065.00;;;;31242541;28;20047;-73
2021/10/27 21:59:05;;;;;;;0.10;0.10;;;11.60;90.70;10.50;102038.00;;;;31238934;28;20045;-73
2021/10/27 22:14:12;;;;;;;0.10;0.10;;;11.50;91.40;10.40;102029.00;;;;31226934;28;20136;-74
2021/10/27 22:29:23;;;;;;;0.20;0.20;;;11.30;90.60;10.20;102013.00;;;;31248759;28;20495;-74
2021/10/27 22:44:24;;;;;;;0.10;0.10;;;12.50;91.10;10.10;102016.00;;;;31248134;28;20511;-74
2021/10/27 23:45:34;;;;;;;0.10;0.10;;;10.70;91.10;9.60;101980.00;;;;31261285;28;20048;-74
